Hi'Ialakai — WTEY — position and weather

sailwx.info

Track history (hours):
 
Tides and Currents Weather Stations Pressure Air Temp Water Temp Dewpoint Dewpoint Depression Visibility Wind Speed Wind Dir Waves Ship Positions

Oceanographic research ship Hi'Ialakai (USA)

Detailed information on ship capabilities available from University of Delaware's Ocean Information Center.

Last reported at 2018-Feb-19 22:00 UTC. Time now 2018-May-28 07:51 UTC.
Position N 48°19' W 123°57'.
Warning: this ship's position is months out of date.

Type: Passenger vessel. MMSI: 368926089.

Date/timePositionNaut miles runAvg speedWind from/ knotsBaromVisibWave heightAir tempDewpointWater temp
2018-Feb-19 22:00N 48°19' W 123°57'2810.5
2018-Feb-19 19:20N 48°18' W 123°15'3 0.5
2018-Feb-19 13:46N 48°18' W 123°10'1 3.8
2018-Feb-19 13:25N 48°19' W 123°09'2 5.2
2018-Feb-19 13:00N 48°20' W 123°05'2 3.9
2018-Feb-19 12:30N 48°18' W 123°07'2 4.5
2018-Feb-19 12:00N 48°17' W 123°10'1 0.8
2018-Feb-19 10:10N 48°18' W 123°08'1 7.9
2018-Feb-19 10:00N 48°18' W 123°10'3 6.0
2018-Feb-19 09:30N 48°17' W 123°14'  
Track history (hours):
 
Tides and Currents Weather Stations Pressure Air Temp Water Temp Dewpoint Dewpoint Depression Visibility Wind Speed Wind Dir Waves Ship Positions

Oceanographic research ship Hi'Ialakai (USA)

Detailed information on ship capabilities available from University of Delaware's Ocean Information Center.

Last reported at 2018-Feb-19 22:00 UTC. Time now 2018-May-28 07:51 UTC.
Position N 48°19' W 123°57'.
Warning: this ship's position is months out of date.

Type: Passenger vessel. MMSI: 368926089.

Date/timePositionNaut miles runAvg speedWind from/ knotsBaromVisibWave heightAir tempDewpointWater temp
2018-Feb-19 22:00N 48°19' W 123°57'2810.5
2018-Feb-19 19:20N 48°18' W 123°15'3 0.5
2018-Feb-19 13:46N 48°18' W 123°10'1 3.8
2018-Feb-19 13:25N 48°19' W 123°09'2 5.2
2018-Feb-19 13:00N 48°20' W 123°05'2 3.9
2018-Feb-19 12:30N 48°18' W 123°07'2 4.5
2018-Feb-19 12:00N 48°17' W 123°10'1 0.8
2018-Feb-19 10:10N 48°18' W 123°08'1 7.9
2018-Feb-19 10:00N 48°18' W 123°10'3 6.0
2018-Feb-19 09:30N 48°17' W 123°14'  

Dump ship's entire track history